Terminal Aerodrome Forecast
Issued by NWS

Home | Current Version | Previous Version | Text Only | Print | Product List | Glossary On
Versions: 1 2 3 4 5 6 7 8 9 10 11 12 13 14 15 16 17 18 19 20 21 22 23 24 25 26
000
FTUS45 KABQ 101729
TAFROW
TAF
KROW 101729Z 1018/1118 14005KT P6SM FEW030
     FM102000 17009KT P6SM SKC
     FM110800 18005KT P6SM BKN007
      TEMPO 1110/1114 1/4SM FZFG OVC003
     FM111700 16005KT P6SM SCT020=

USA.gov is the U.S. government's official web portal to all federal, state and local government web resources and services.